Antlers, Oklahoma
Current Conditions -  °F | °C
As of 10:15 PM on Saturday 22 Nov 2014 (Local Time) from KHHW Reporting Station
Broken Clouds Broken Clouds  
Wind Chill: 60°   Ceiling: 400
Heat Index: 60°   Visibility: 7mi
Dew Point: 58°   Wind: 17mph
Humidity: 92%   Direction: 120°ESE
Pressure: 29.73"   Gusts: 22mph
Location:  34.23°N, 95.62°W
Report Text: KHHW 230415Z AUTO 12015G19KT 7SM BKN004 BKN011 16/14 A2973 RMK AO2 T01550142
Loading
Personal Weather Stations






























Interactive Weather Map New forecast layout! Learn more

10-Day Weather Forecast

Advertisements
Track Severe Weather on mobile